Latest Coastal Weather Observations for Hamilton Island

IDQ60701

Issued at 9:31 am EST Monday 19 August 2019 (issued every 10 minutes, with the page automatically refreshed every 10 minutes)

About coastal observations | Map of coastal stations | Coastal observations for QLD | Marine services | Other Formats
Station Details ID: 033106 Name: HAMILTON ISLAND AIRPORT Lat: -20.37 Lon: 148.95 Height: 58.66 m
Data from the previous 72 hours. | See also: Recent months at Hamilton Island
Date/Time
EST
Wind Sea
Height
m
Swell Vis
km
Cloud Weather Temp
°C
Press
hPa
Rain since
9am
mm
Dir  Spd
kts
Gust
kts
Height
m
Period
s
Dir
19/09:30am SSE 12 14 - - - - 10 Clear - 20.9 1018.8 0.0
19/09:00am SSE 11 14 - - - - 10 - - 20.8 1018.7 0.0
19/08:30am SSE 11 14 - - - - 10 - - 20.6 1018.4 0.0
19/08:00am SSE 11 14 - - - - 10 - - 20.3 1018.1 0.0
19/07:30am SSE 11 14 - - - - 10 - - 19.8 1017.7 0.0
19/07:00am SSE 11 14 - - - - 10 - - 19.3 1017.3 0.0
19/06:30am SSE 11 14 - - - - 10 - - 18.8 1017.2 0.0
19/06:00am S 11 13 - - - - 10 Mostly clear - 18.6 1017.0 0.0
19/05:30am SSE 9 11 - - - - 10 - - 18.7 1016.9 0.0
19/05:00am SE 9 11 - - - - 10 - - 19.2 1016.7 0.0
19/04:30am SE 11 12 - - - - 10 - - 19.2 1016.6 0.0
19/04:00am SE 10 11 - - - - 10 - - 19.3 1016.7 0.0
19/03:30am SE 10 11 - - - - 10 Partly cloudy - 19.3 1017.0 0.0
19/03:00am SE 10 12 - - - - 10 - - 19.3 1017.2 0.0
19/02:30am SE 10 11 - - - - 10 - - 19.4 1017.5 0.0
19/02:00am SE 10 13 - - - - 10 - - 19.5 1018.0 0.0
19/01:30am ESE 11 13 - - - - 10 - - 19.8 1018.2 0.0
19/01:00am ESE 12 14 - - - - 10 - - 20.0 1018.3 0.0
19/12:30am ESE 13 15 - - - - 10 - - 20.0 1018.5 0.0
19/12:00am ESE 14 16 - - - - 10 - - 20.1 1018.7 0.0
 
Date/Time
EST
Wind Sea
Height
m
Swell Vis
km
Cloud Weather Temp
°C
Press
hPa
Rain since
9am
mm
Dir  Spd
kts
Gust
kts
Height
m
Period
s
Dir
18/11:30pm ESE 14 17 - - - - 10 - - 20.2 1018.6 0.0
18/11:00pm ESE 15 18 - - - - 10 - - 20.2 1018.5 0.0
18/10:30pm ESE 16 18 - - - - 10 - - 20.1 1018.4 0.0
18/10:00pm ESE 16 19 - - - - 10 - - 20.1 1018.4 0.0
18/09:30pm ESE 18 21 - - - - 10 - - 20.4 1018.4 0.0
18/09:00pm E 17 22 - - - - 10 - - 20.5 1018.3 0.0
18/08:30pm E 20 23 - - - - 10 - - 20.7 1018.1 0.0
18/08:00pm E 21 23 - - - - 10 - - 20.7 1017.9 0.0
18/07:30pm ESE 20 23 - - - - 10 - - 20.9 1017.5 0.0
18/07:00pm ESE 15 19 - - - - 10 - - 20.5 1017.1 0.0
18/06:30pm ESE 13 15 - - - - 10 - - 20.5 1016.9 0.0
18/06:00pm ESE 12 14 - - - - 10 - - 20.3 1016.6 0.0
18/05:30pm E 14 17 - - - - 10 - - 20.7 1016.5 0.0
18/05:00pm ESE 11 14 - - - - 10 - - 21.3 1016.3 0.0
18/04:30pm SE 5 6 - - - - 10 - - 21.2 1016.3 0.0
18/04:00pm SE 6 6 - - - - 10 - - 21.4 1016.3 0.0
18/03:30pm SE 7 8 - - - - 10 - - 21.7 1016.4 0.0
18/03:00pm SE 7 8 - - - - 10 - - 22.1 1016.6 0.0
18/02:30pm SSE 8 10 - - - - 10 - - 22.0 1017.1 0.0
18/02:00pm SE 7 8 - - - - 10 - - 22.1 1017.7 0.0
18/01:30pm SE 7 8 - - - - 10 - - 22.4 1018.0 0.0
18/01:00pm SE 7 8 - - - - 10 - - 22.0 1018.2 0.0
18/12:30pm SE 6 8 - - - - 10 - - 22.6 1018.6 0.0
18/12:00pm SE 7 8 - - - - 10 - - 22.1 1018.9 0.0
18/11:30am SE 7 9 - - - - 10 - - 21.9 1019.5 0.0
18/11:00am SSE 9 10 - - - - 10 - - 21.7 1020.0 0.0
18/10:30am SSE 9 11 - - - - 10 - - 21.6 1020.5 0.0
18/10:00am SSE 9 12 - - - - 10 - - 21.2 1020.7 0.0
18/09:30am SSE 9 11 - - - - 10 - - 21.1 1020.8 0.0
18/09:00am SE 8 9 - - - - 10 - - 21.1 1020.7 0.0
18/08:30am SE 5 7 - - - - 10 - - 21.0 1020.6 0.0
18/08:00am S 5 6 - - - - 10 - - 19.7 1020.3 0.0
18/07:30am SSW 4 5 - - - - 10 - - 19.3 1019.7 0.0
18/07:00am SW 5 6 - - - - 10 - - 18.5 1019.3 0.0
18/06:30am WSW 4 5 - - - - 10 Partly cloudy - 18.4 1019.0 0.0
18/06:26am WSW 5 6 - - - - 10 Partly cloudy - 18.3 1019.0 0.0
18/06:00am SW 5 6 - - - - 10 Mostly cloudy - 18.3 1018.7 0.0
18/05:30am SW 4 6 - - - - 10 Partly cloudy - 18.5 1018.4 0.0
18/05:29am SW 4 6 - - - - 10 Partly cloudy - 18.5 1018.4 0.0
18/05:00am S 6 8 - - - - 10 Partly cloudy - 18.7 1018.4 0.0
18/04:30am S 7 8 - - - - 10 Partly cloudy - 18.7 1018.3 0.0
18/04:27am S 7 8 - - - - 10 Partly cloudy - 18.7 1018.3 0.0
18/04:00am S 8 10 - - - - 10 Partly cloudy - 18.6 1018.2 0.0
18/03:39am S 9 10 - - - - 10 Partly cloudy - 18.7 1018.2 0.0
18/03:30am S 9 11 - - - - 10 Partly cloudy - 18.7 1018.2 0.0
18/03:00am S 9 11 - - - - 10 - - 18.8 1018.2 0.0
18/02:30am SSE 10 12 - - - - 10 - - 18.9 1018.4 0.0
18/02:00am SSE 11 13 - - - - 10 Partly cloudy - 19.1 1018.5 0.0
18/01:30am E 4 7 - - - - 10 - - 19.7 1018.8 0.0
18/01:00am E 6 7 - - - - 10 - - 20.0 1019.0 0.0
18/12:30am E 7 9 - - - - 10 - - 20.0 1019.2 0.0
18/12:00am ESE 9 12 - - - - 10 - - 20.0 1019.2 0.0
 
Date/Time
EST
Wind Sea
Height
m
Swell Vis
km
Cloud Weather Temp
°C
Press
hPa
Rain since
9am
mm
Dir  Spd
kts
Gust
kts
Height
m
Period
s
Dir
17/11:30pm ESE 9 12 - - - - 10 - - 20.0 1019.3 0.0
17/11:00pm ESE 11 12 - - - - 10 Partly cloudy - 20.0 1019.5 0.0
17/10:30pm ESE 9 12 - - - - 10 Partly cloudy - 19.9 1019.4 0.0
17/10:00pm SE 10 11 - - - - 10 - - 19.9 1019.3 0.0
17/09:30pm ESE 13 15 - - - - 10 - - 20.2 1019.1 0.0
17/09:00pm ESE 12 15 - - - - 10 - - 20.3 1019.0 0.0
17/08:30pm ESE 13 16 - - - - 10 - - 20.2 1018.8 0.0
17/08:00pm ESE 13 15 - - - - 10 Partly cloudy - 20.1 1018.6 0.0
17/07:30pm ESE 13 15 - - - - 10 - - 20.0 1018.4 0.0
17/07:00pm ESE 15 18 - - - - 10 - - 20.1 1018.1 0.0
17/06:30pm ESE 17 19 - - - - 10 - - 20.2 1017.5 0.0
17/06:00pm ESE 16 18 - - - - 10 - - 20.2 1017.2 0.0
17/05:30pm ESE 17 19 - - - - 10 - - 20.4 1017.0 0.0
17/05:00pm ESE 16 19 - - - - 10 - - 20.6 1016.9 0.0
17/04:30pm E 16 19 - - - - 10 - - 20.8 1016.6 0.0
17/04:00pm E 13 15 - - - - 10 - - 21.1 1016.7 0.0
17/03:30pm ESE 10 13 - - - - 10 - - 21.8 1016.8 0.0
17/03:00pm SE 8 10 - - - - 10 - - 22.0 1017.0 0.0
17/02:30pm SSE 8 10 - - - - 10 - - 21.4 1017.4 0.0
17/02:00pm SSE 9 10 - - - - 10 - - 21.3 1017.5 0.0
17/01:30pm SSE 11 13 - - - - 10 - - 21.4 1017.9 0.0
17/01:00pm SSE 11 13 - - - - 10 - - 21.8 1018.4 0.0
17/12:30pm SSE 12 15 - - - - 10 - - 21.6 1018.8 0.0
17/12:00pm SSE 12 14 - - - - 10 - - 21.3 1019.3 0.0
17/11:30am SSE 11 14 - - - - 10 Partly cloudy - 21.5 1019.8 0.0
17/11:00am SSE 11 15 - - - - 10 Partly cloudy - 21.5 1020.2 0.0
17/10:30am SSE 11 13 - - - - 10 - - 21.6 1020.5 0.0
17/10:00am SSE 11 14 - - - - 10 - - 21.3 1020.7 0.0
17/09:45am SSE 12 15 - - - - 10 Partly cloudy - 21.3 1020.7 0.0
17/09:30am SSE 11 14 - - - - 10 Partly cloudy - 20.8 1020.7 0.0
17/09:25am SSE 11 14 - - - - 10 Partly cloudy - 20.9 1020.8 0.0
17/09:22am SSE 12 14 - - - - 10 Partly cloudy - 20.8 1020.8 0.0
17/09:07am SSE 12 15 - - - - 10 Partly cloudy - 20.8 1020.7 0.0
17/09:03am SSE 12 14 - - - - 10 Partly cloudy - 20.7 1020.6 0.0
17/09:00am SSE 12 14 - - - - 10 Partly cloudy - 20.6 1020.6 0.0
17/08:44am SSE 11 14 - - - - 10 Partly cloudy - 20.6 1020.6 0.0
17/08:30am SSE 11 15 - - - - 10 Partly cloudy - 20.2 1020.6 0.0
17/08:00am SSE 11 14 - - - - 10 Partly cloudy - 20.0 1020.6 0.0
17/07:30am SSE 10 13 - - - - 10 Partly cloudy - 19.7 1020.5 0.0
17/07:00am SSE 10 12 - - - - 10 Partly cloudy - 19.4 1020.3 0.0
17/06:30am SSE 9 11 - - - - 10 Partly cloudy - 18.7 1019.9 0.0
17/06:00am SSE 10 12 - - - - 10 Mostly clear - 18.7 1019.7 0.0
17/05:40am S 10 13 - - - - 10 Partly cloudy - 18.6 1019.5 0.0
17/05:30am SSE 10 13 - - - - 10 Partly cloudy - 18.6 1019.4 0.0
17/05:27am SSE 11 13 - - - - 10 Partly cloudy - 18.7 1019.4 0.0
17/05:23am SSE 11 13 - - - - 10 Partly cloudy - 18.7 1019.4 0.0
17/05:00am SSE 12 15 - - - - 10 Partly cloudy - 18.8 1019.2 0.0
17/04:33am S 10 14 - - - - 10 Partly cloudy - 18.8 1018.9 0.0
17/04:30am S 10 14 - - - - 10 Partly cloudy - 18.8 1018.9 0.0
17/04:00am SSE 11 15 - - - - 10 Partly cloudy - 18.6 1019.0 0.0
17/03:30am SSE 12 15 - - - - 10 Partly cloudy - 18.9 1019.1 0.0
17/03:00am SE 12 14 - - - - 10 Mostly clear - 19.5 1019.3 0.0
17/02:30am SE 13 15 - - - - 10 Partly cloudy - 19.4 1019.2 0.0
17/02:00am SE 14 16 - - - - 10 Partly cloudy - 19.6 1019.4 0.0
17/01:30am SE 13 15 - - - - 10 Partly cloudy - 19.6 1019.7 0.0
17/01:00am SE 12 14 - - - - 10 Partly cloudy - 19.5 1019.9 0.0
17/12:30am SE 12 14 - - - - 10 Partly cloudy - 19.4 1020.2 0.0
17/12:00am SE 11 13 - - - - 10 Mostly clear - 19.5 1020.4 0.0
 
Date/Time
EST
Wind Sea
Height
m
Swell Vis
km
Cloud Weather Temp
°C
Press
hPa
Rain since
9am
mm
Dir  Spd
kts
Gust
kts
Height
m
Period
s
Dir
16/11:30pm SE 10 13 - - - - 10 Partly cloudy - 19.5 1020.5 0.0
16/11:00pm ESE 11 14 - - - - 10 Partly cloudy - 19.8 1020.5 0.0
16/10:30pm ESE 11 14 - - - - 10 Partly cloudy - 19.8 1020.5 0.0
16/10:00pm ESE 13 16 - - - - 10 Partly cloudy - 19.8 1020.5 0.0
16/09:30pm ESE 14 16 - - - - 10 - - 19.8 1020.3 0.0
16/09:00pm ESE 15 18 - - - - 10 - - 19.9 1020.2 0.0
16/08:30pm ESE 15 17 - - - - 10 - - 19.9 1020.2 0.0
16/08:00pm ESE 15 18 - - - - 10 Partly cloudy - 19.9 1020.2 0.0
16/07:30pm ESE 15 17 - - - - 10 Partly cloudy - 19.8 1019.8 0.0
16/07:00pm ESE 14 18 - - - - 10 Partly cloudy - 19.8 1019.6 0.0
16/06:30pm ESE 15 18 - - - - 10 Partly cloudy - 19.9 1019.5 0.0
16/06:00pm ESE 15 17 - - - - 10 - - 20.0 1019.3 0.0
16/05:30pm ESE 15 18 - - - - 10 - - 20.2 1019.1 0.0
16/05:00pm ESE 16 17 - - - - 10 - - 20.4 1019.0 0.0
16/04:30pm ESE 14 16 - - - - 10 - - 20.8 1019.0 0.0
16/04:00pm ESE 14 16 - - - - 10 - - 21.1 1019.0 0.0
16/03:30pm ESE 15 17 - - - - 10 - - 21.4 1018.9 0.0
16/03:00pm ESE 15 18 - - - - 10 - - 21.7 1018.9 0.0
16/02:30pm ESE 16 19 - - - - 10 - - 22.1 1019.1 0.0
16/02:00pm ESE 15 17 - - - - 10 - - 22.1 1019.4 0.0
16/01:30pm SSE 16 18 - - - - 10 - - 21.3 1019.9 0.0
16/01:00pm SSE 17 19 - - - - 10 - - 21.4 1020.3 0.0
16/12:30pm SSE 16 18 - - - - 10 - - 21.7 1020.9 0.0
16/12:00pm SSE 15 19 - - - - 10 Mostly clear - 21.4 1021.3 0.0
16/11:30am SSE 14 18 - - - - 10 Partly cloudy - 21.5 1021.8 0.0
16/11:00am SSE 15 18 - - - - 10 Partly cloudy - 21.1 1022.2 0.0
16/10:30am SSE 15 18 - - - - 10 Partly cloudy - 21.4 1022.4 0.0
16/10:00am SSE 15 18 - - - - 10 Partly cloudy - 21.0 1022.7 0.0

Other formats

Comma delimited format used in spreadsheet applications
http://www.bom.gov.au/fwo/IDQ60701/IDQ60701.94368.axf

JavaScript Object Notation format (JSON) in row-major order
http://www.bom.gov.au/fwo/IDQ60701/IDQ60701.94368.json

Data quality

Most of these data are generated automatically and are frequently updated. Quality checks on data are not normally performed. It is possible for incorrect values to appear. Refer to information at About Latest Weather Observations and please check the disclaimer before using these data.